Time;durP1;ratioP1;P1;durP2;ratioP2;P2;SDS_P1;SDS_P2;PMS_P1;PMS_P2;Temp;Humidity;BMP_temperature;BMP_pressure;BME280_temperature;BME280_humidity;BME280_pressure;Samples;Min_cycle;Max_cycle;Signal;HPM_P1;HPM_P2
2024/01/21 00:00:06;;;;;;;16.50;9.82;;;;;;;;;;5077355;28;20040;-66
2024/01/21 00:02:32;;;;;;;18.67;10.98;;;;;;;;;;5070518;28;20036;-66
2024/01/21 00:04:58;;;;;;;16.40;10.38;;;;;;;;;;5072137;28;20032;-66
2024/01/21 00:07:24;;;;;;;18.38;10.40;;;;;;;;;;5072120;28;20093;-66
2024/01/21 00:09:50;;;;;;;18.90;10.07;;;;;;;;;;5071946;28;20040;-66
2024/01/21 00:12:16;;;;;;;15.15;8.43;;;;;;;;;;5069308;28;20513;-66
2024/01/21 00:14:42;;;;;;;20.20;10.77;;;;;;;;;;5069383;28;20400;-66
2024/01/21 00:17:08;;;;;;;18.38;9.77;;;;;;;;;;5071133;28;20072;-66
2024/01/21 00:19:34;;;;;;;17.00;10.05;;;;;;;;;;5071713;28;20047;-66
2024/01/21 00:22:00;;;;;;;17.83;9.68;;;;;;;;;;5071424;28;20033;-66
2024/01/21 00:24:26;;;;;;;15.43;8.95;;;;;;;;;;5053759;28;20032;-66
2024/01/21 00:26:52;;;;;;;17.63;9.80;;;;;;;;;;5053712;28;20106;-66
2024/01/21 00:29:18;;;;;;;17.85;9.15;;;;;;;;;;5065806;28;20059;-66
2024/01/21 00:31:44;;;;;;;18.17;9.65;;;;;;;;;;5064385;28;20048;-66
2024/01/21 00:34:10;;;;;;;16.80;9.05;;;;;;;;;;5071929;28;20037;-66
2024/01/21 00:36:36;;;;;;;13.02;8.50;;;;;;;;;;5077057;28;20043;-66
2024/01/21 00:39:02;;;;;;;14.18;8.15;;;;;;;;;;5071643;28;20540;-66
2024/01/21 00:41:28;;;;;;;16.05;8.45;;;;;;;;;;5071149;28;20037;-66
2024/01/21 00:43:54;;;;;;;15.63;8.40;;;;;;;;;;5071246;28;20375;-66
2024/01/21 00:46:20;;;;;;;15.30;7.90;;;;;;;;;;5071606;28;20086;-66
2024/01/21 00:48:46;;;;;;;19.00;9.23;;;;;;;;;;5064452;28;20056;-66
2024/01/21 00:51:12;;;;;;;15.27;8.23;;;;;;;;;;5071462;28;20484;-66
2024/01/21 00:53:38;;;;;;;14.13;8.02;;;;;;;;;;5071467;28;20037;-66
2024/01/21 00:56:04;;;;;;;13.88;8.30;;;;;;;;;;5071344;28;20142;-66
2024/01/21 00:58:30;;;;;;;11.55;7.22;;;;;;;;;;5071312;28;20040;-66
2024/01/21 01:00:56;;;;;;;13.13;7.07;;;;;;;;;;5068561;28;20039;-66
2024/01/21 01:03:22;;;;;;;11.20;7.03;;;;;;;;;;5070751;28;20038;-66
2024/01/21 01:05:48;;;;;;;13.02;7.25;;;;;;;;;;5070930;28;20119;-66
2024/01/21 01:08:14;;;;;;;11.75;6.47;;;;;;;;;;5071351;28;20176;-66
2024/01/21 01:10:40;;;;;;;11.45;6.53;;;;;;;;;;5071090;28;20101;-66
2024/01/21 01:13:06;;;;;;;13.48;7.10;;;;;;;;;;5063843;28;20041;-66
2024/01/21 01:15:32;;;;;;;10.55;6.13;;;;;;;;;;5076306;28;20330;-66
2024/01/21 01:17:58;;;;;;;11.68;6.35;;;;;;;;;;5068795;28;20037;-66
2024/01/21 01:20:24;;;;;;;10.25;5.85;;;;;;;;;;5071269;28;20035;-66
2024/01/21 01:22:50;;;;;;;9.98;5.88;;;;;;;;;;5070797;28;20047;-66
2024/01/21 01:25:16;;;;;;;10.45;5.90;;;;;;;;;;5047936;22;20042;-68
2024/01/21 01:27:42;;;;;;;9.32;6.30;;;;;;;;;;5026955;28;20037;-68
2024/01/21 01:30:08;;;;;;;9.93;5.55;;;;;;;;;;5033363;28;20080;-68
2024/01/21 01:32:34;;;;;;;7.53;5.05;;;;;;;;;;5033122;28;20442;-68
2024/01/21 01:35:00;;;;;;;8.30;4.85;;;;;;;;;;5025326;28;20120;-68
2024/01/21 01:37:26;;;;;;;9.05;5.60;;;;;;;;;;5024013;28;20038;-68
2024/01/21 01:39:52;;;;;;;11.02;5.43;;;;;;;;;;5031806;28;20044;-68
2024/01/21 01:42:18;;;;;;;10.13;5.82;;;;;;;;;;5032554;28;20168;-68
2024/01/21 01:44:44;;;;;;;9.00;5.20;;;;;;;;;;5031456;28;20033;-68
2024/01/21 01:47:10;;;;;;;8.00;4.75;;;;;;;;;;5032807;28;20068;-68
2024/01/21 01:49:38;;;;;;;7.32;4.97;;;;;;;;;;5032765;28;20048;-68
2024/01/21 01:52:05;;;;;;;8.70;4.85;;;;;;;;;;5032158;28;20099;-68
2024/01/21 01:54:34;;;;;;;9.00;4.88;;;;;;;;;;5013024;28;20041;-68
2024/01/21 01:57:01;;;;;;;9.00;5.10;;;;;;;;;;5030926;28;20070;-68
2024/01/21 01:59:27;;;;;;;7.32;4.53;;;;;;;;;;5031395;28;20438;-68
2024/01/21 02:01:53;;;;;;;6.53;4.88;;;;;;;;;;5031429;28;20507;-68
2024/01/21 02:04:20;;;;;;;8.88;5.25;;;;;;;;;;5031235;28;20030;-68
2024/01/21 02:06:46;;;;;;;7.22;4.70;;;;;;;;;;5006684;28;20041;-68
2024/01/21 02:09:11;;;;;;;5.47;4.22;;;;;;;;;;5005776;28;20518;-68
2024/01/21 02:11:37;;;;;;;9.80;5.10;;;;;;;;;;5003820;28;20039;-68
2024/01/21 02:14:03;;;;;;;6.88;3.92;;;;;;;;;;5004033;28;20495;-68
2024/01/21 02:16:29;;;;;;;5.53;3.97;;;;;;;;;;5009021;28;20049;-68
2024/01/21 02:18:55;;;;;;;6.10;4.18;;;;;;;;;;5018169;28;20046;-68
2024/01/21 02:21:21;;;;;;;7.28;4.20;;;;;;;;;;5022791;28;20037;-67
2024/01/21 02:23:47;;;;;;;6.68;3.90;;;;;;;;;;5023604;28;20125;-68
2024/01/21 02:26:14;;;;;;;6.00;3.75;;;;;;;;;;5024733;28;20042;-68
2024/01/21 02:28:40;;;;;;;4.80;3.13;;;;;;;;;;5029620;28;20115;-68
2024/01/21 02:31:06;;;;;;;4.90;3.20;;;;;;;;;;5028114;28;20116;-68
2024/01/21 02:33:32;;;;;;;6.30;3.50;;;;;;;;;;5027974;28;20041;-68
2024/01/21 02:35:58;;;;;;;5.95;3.45;;;;;;;;;;5006462;28;20041;-68
2024/01/21 02:38:24;;;;;;;5.13;3.20;;;;;;;;;;5032690;28;20033;-68
2024/01/21 02:40:50;;;;;;;4.32;2.67;;;;;;;;;;5030880;28;20037;-68
2024/01/21 02:43:16;;;;;;;4.25;2.83;;;;;;;;;;5032699;28;20029;-68
2024/01/21 02:45:42;;;;;;;5.03;3.17;;;;;;;;;;5031746;28;20038;-68
2024/01/21 02:48:08;;;;;;;4.63;3.17;;;;;;;;;;5025906;28;20039;-68
2024/01/21 02:50:34;;;;;;;4.35;2.67;;;;;;;;;;5025965;28;20069;-68
2024/01/21 02:52:59;;;;;;;3.40;2.65;;;;;;;;;;5031734;28;20061;-68
2024/01/21 02:55:25;;;;;;;2.85;2.55;;;;;;;;;;5030950;28;20029;-68
2024/01/21 02:57:51;;;;;;;4.75;2.65;;;;;;;;;;5031054;28;20049;-68
2024/01/21 03:00:17;;;;;;;4.28;2.90;;;;;;;;;;5022703;28;20041;-68
2024/01/21 03:02:43;;;;;;;5.53;2.80;;;;;;;;;;5021161;28;20403;-68
2024/01/21 03:05:09;;;;;;;4.25;2.53;;;;;;;;;;5029135;28;20041;-68
2024/01/21 03:07:35;;;;;;;3.70;2.70;;;;;;;;;;5025556;28;20049;-68
2024/01/21 03:10:01;;;;;;;5.72;2.60;;;;;;;;;;5031283;28;20045;-68
2024/01/21 03:12:27;;;;;;;4.00;2.42;;;;;;;;;;5032238;28;20040;-68
2024/01/21 03:14:53;;;;;;;3.35;2.35;;;;;;;;;;5030602;28;20042;-68
2024/01/21 03:17:19;;;;;;;4.13;2.67;;;;;;;;;;5032343;28;20507;-68
2024/01/21 03:19:45;;;;;;;3.80;2.40;;;;;;;;;;5031697;28;20040;-68
2024/01/21 03:22:11;;;;;;;4.57;2.72;;;;;;;;;;5017572;28;20120;-68
2024/01/21 03:24:37;;;;;;;5.05;2.55;;;;;;;;;;5031228;28;20427;-68
2024/01/21 03:27:03;;;;;;;5.50;2.58;;;;;;;;;;5031412;28;20077;-68
2024/01/21 03:29:29;;;;;;;4.80;3.03;;;;;;;;;;5031568;28;20534;-68
2024/01/21 03:31:55;;;;;;;2.83;2.20;;;;;;;;;;5026257;28;20041;-68
2024/01/21 03:34:21;;;;;;;3.15;2.28;;;;;;;;;;5031970;28;20494;-68
2024/01/21 03:36:47;;;;;;;3.58;2.15;;;;;;;;;;5030924;28;20046;-68
2024/01/21 03:39:13;;;;;;;3.60;2.33;;;;;;;;;;5031618;28;20033;-68
2024/01/21 03:41:39;;;;;;;4.10;2.40;;;;;;;;;;5015674;28;20042;-68
2024/01/21 03:44:05;;;;;;;3.95;2.40;;;;;;;;;;5031276;28;20040;-68
2024/01/21 03:46:31;;;;;;;2.95;2.00;;;;;;;;;;5029035;28;20120;-68
2024/01/21 03:48:57;;;;;;;3.50;2.20;;;;;;;;;;5030237;28;20518;-68
2024/01/21 03:51:23;;;;;;;3.25;2.22;;;;;;;;;;5030710;28;20103;-68
2024/01/21 03:53:49;;;;;;;3.53;2.40;;;;;;;;;;5031090;28;20045;-68
2024/01/21 03:56:18;;;;;;;2.20;1.85;;;;;;;;;;5029710;28;20033;-68
2024/01/21 03:58:44;;;;;;;3.97;2.20;;;;;;;;;;5025734;28;20177;-68
2024/01/21 04:01:10;;;;;;;3.20;2.22;;;;;;;;;;5001629;28;20415;-68
2024/01/21 04:03:36;;;;;;;5.47;2.63;;;;;;;;;;5031635;28;20034;-68
2024/01/21 04:06:03;;;;;;;3.80;2.08;;;;;;;;;;5031016;28;20041;-68
2024/01/21 04:08:28;;;;;;;5.82;2.60;;;;;;;;;;5013531;28;20123;-68
2024/01/21 04:10:54;;;;;;;2.80;1.80;;;;;;;;;;5030812;28;20068;-68
2024/01/21 04:13:21;;;;;;;3.45;2.00;;;;;;;;;;5031607;28;20033;-68
2024/01/21 04:15:47;;;;;;;3.65;1.90;;;;;;;;;;5026991;28;20124;-68
2024/01/21 04:18:13;;;;;;;3.78;2.53;;;;;;;;;;5031485;28;20060;-68
2024/01/21 04:20:39;;;;;;;3.13;2.38;;;;;;;;;;5031249;28;20041;-68
2024/01/21 04:23:05;;;;;;;4.28;2.45;;;;;;;;;;5031233;28;20037;-68
2024/01/21 04:25:31;;;;;;;2.90;2.30;;;;;;;;;;5027333;28;20499;-68
2024/01/21 04:27:57;;;;;;;3.08;2.17;;;;;;;;;;5030438;28;20102;-68
2024/01/21 04:30:23;;;;;;;3.25;1.85;;;;;;;;;;5028989;28;20033;-68
2024/01/21 04:32:49;;;;;;;3.30;2.05;;;;;;;;;;5011096;28;20049;-68
2024/01/21 04:35:15;;;;;;;2.88;1.67;;;;;;;;;;5031145;28;20045;-68
2024/01/21 04:37:41;;;;;;;3.00;1.90;;;;;;;;;;5030864;28;20053;-68
2024/01/21 04:40:07;;;;;;;2.58;1.80;;;;;;;;;;5031301;28;20090;-68
2024/01/21 04:42:33;;;;;;;3.55;1.77;;;;;;;;;;5031357;28;20450;-68
2024/01/21 04:44:59;;;;;;;2.78;1.90;;;;;;;;;;5027420;28;20041;-68
2024/01/21 04:47:25;;;;;;;3.55;2.10;;;;;;;;;;5013541;28;20432;-68
2024/01/21 04:49:51;;;;;;;3.10;2.13;;;;;;;;;;5031000;28;20043;-68
2024/01/21 04:52:17;;;;;;;2.47;1.88;;;;;;;;;;5030667;28;20037;-68
2024/01/21 04:54:43;;;;;;;3.03;2.30;;;;;;;;;;5027816;28;20038;-68
2024/01/21 04:57:09;;;;;;;6.05;2.38;;;;;;;;;;5031263;28;20541;-68
2024/01/21 04:59:34;;;;;;;3.42;2.17;;;;;;;;;;5031409;28;20056;-68
2024/01/21 05:02:00;;;;;;;3.20;2.42;;;;;;;;;;5014203;28;20089;-68
2024/01/21 05:04:26;;;;;;;4.88;2.08;;;;;;;;;;5028699;28;20048;-68
2024/01/21 05:06:52;;;;;;;3.28;2.00;;;;;;;;;;5035909;28;20442;-68
2024/01/21 05:09:18;;;;;;;3.30;2.03;;;;;;;;;;5037221;28;20072;-68
2024/01/21 05:11:44;;;;;;;3.95;2.03;;;;;;;;;;5037395;28;20095;-68
2024/01/21 05:14:10;;;;;;;3.10;2.30;;;;;;;;;;5018539;28;20073;-67
2024/01/21 05:16:39;;;;;;;3.38;2.10;;;;;;;;;;5019883;28;20531;-67
2024/01/21 05:19:05;;;;;;;3.47;2.47;;;;;;;;;;5018073;28;20124;-67
2024/01/21 05:21:31;;;;;;;3.72;2.55;;;;;;;;;;5022327;28;20121;-67
2024/01/21 05:23:57;;;;;;;4.40;2.30;;;;;;;;;;5023124;28;20041;-67
2024/01/21 05:26:23;;;;;;;3.03;2.13;;;;;;;;;;5018079;28;20041;-67
2024/01/21 05:28:49;;;;;;;2.85;2.10;;;;;;;;;;5000419;28;20091;-67
2024/01/21 05:31:15;;;;;;;2.85;2.30;;;;;;;;;;5017783;28;20045;-67
2024/01/21 05:33:41;;;;;;;4.45;2.15;;;;;;;;;;5022225;28;20049;-67
2024/01/21 05:36:09;;;;;;;5.95;2.38;;;;;;;;;;5017773;28;20034;-68
2024/01/21 05:38:35;;;;;;;2.67;2.38;;;;;;;;;;5018275;28;20476;-68
2024/01/21 05:41:01;;;;;;;3.55;2.20;;;;;;;;;;5012369;28;20404;-68
2024/01/21 05:43:27;;;;;;;5.35;2.60;;;;;;;;;;5011292;28;20030;-68
2024/01/21 05:45:53;;;;;;;4.00;2.65;;;;;;;;;;5017950;28;20041;-68
2024/01/21 05:48:19;;;;;;;4.00;2.33;;;;;;;;;;5018305;28;20429;-68
2024/01/21 05:50:45;;;;;;;4.65;2.63;;;;;;;;;;5017895;28;20045;-68
2024/01/21 05:53:11;;;;;;;5.35;2.60;;;;;;;;;;5021218;28;20045;-68
2024/01/21 05:55:37;;;;;;;4.43;3.05;;;;;;;;;;5018170;28;20496;-68
2024/01/21 05:58:03;;;;;;;3.80;2.53;;;;;;;;;;5018345;28;20049;-68
2024/01/21 06:00:29;;;;;;;4.25;2.58;;;;;;;;;;5018264;28;20060;-68
2024/01/21 06:02:55;;;;;;;5.07;2.75;;;;;;;;;;5020477;28;20037;-68
2024/01/21 06:05:21;;;;;;;5.00;3.05;;;;;;;;;;5017938;28;20041;-68
2024/01/21 06:07:47;;;;;;;4.53;2.50;;;;;;;;;;5018414;28;20049;-68
2024/01/21 06:10:12;;;;;;;3.75;3.00;;;;;;;;;;5000583;28;20068;-68
2024/01/21 06:12:38;;;;;;;5.57;3.30;;;;;;;;;;5016383;28;20496;-68
2024/01/21 06:15:05;;;;;;;5.95;2.80;;;;;;;;;;5014681;28;20050;-68
2024/01/21 06:17:31;;;;;;;6.55;3.45;;;;;;;;;;5014787;28;20046;-68
2024/01/21 06:19:57;;;;;;;6.80;3.35;;;;;;;;;;4997190;28;20046;-68
2024/01/21 06:22:23;;;;;;;5.57;3.30;;;;;;;;;;5015162;28;20046;-68
2024/01/21 06:24:49;;;;;;;6.88;3.35;;;;;;;;;;5016982;28;20041;-68
2024/01/21 06:27:15;;;;;;;6.63;3.50;;;;;;;;;;5013687;28;20069;-68
2024/01/21 06:29:45;;;;;;;6.10;3.22;;;;;;;;;;5012619;28;20562;-68
2024/01/21 06:32:11;;;;;;;6.03;3.58;;;;;;;;;;5016326;28;20064;-68
2024/01/21 06:34:37;;;;;;;8.18;3.50;;;;;;;;;;5020008;28;20052;-68
2024/01/21 06:37:03;;;;;;;6.15;4.18;;;;;;;;;;5014302;28;20045;-68
2024/01/21 06:39:29;;;;;;;7.30;3.63;;;;;;;;;;5014836;28;20096;-68
2024/01/21 06:41:55;;;;;;;7.22;4.28;;;;;;;;;;5014872;28;20041;-68
2024/01/21 06:44:21;;;;;;;8.23;4.10;;;;;;;;;;5013739;28;20389;-68
2024/01/21 06:46:47;;;;;;;7.72;4.10;;;;;;;;;;5011941;28;20088;-68
2024/01/21 06:49:13;;;;;;;8.73;4.28;;;;;;;;;;4997055;28;20042;-68
2024/01/21 06:51:54;;;;;;;8.90;4.28;;;;;;;;;;5014445;28;20049;-68
2024/01/21 06:54:21;;;;;;;8.48;4.40;;;;;;;;;;5008490;28;20109;-68
2024/01/21 06:56:48;;;;;;;7.60;3.92;;;;;;;;;;5014907;28;20420;-68
2024/01/21 06:59:14;;;;;;;9.43;5.10;;;;;;;;;;5014449;28;20045;-68
2024/01/21 07:01:41;;;;;;;6.78;3.83;;;;;;;;;;5014495;28;20041;-68
2024/01/21 07:04:07;;;;;;;7.30;4.35;;;;;;;;;;5015259;28;20046;-68
2024/01/21 07:06:33;;;;;;;7.95;4.53;;;;;;;;;;5014636;28;20514;-68
2024/01/21 07:08:59;;;;;;;10.05;5.45;;;;;;;;;;5015172;28;20041;-68
2024/01/21 07:11:25;;;;;;;6.90;4.88;;;;;;;;;;5014217;28;20033;-68
2024/01/21 07:13:51;;;;;;;10.88;5.28;;;;;;;;;;5006208;28;20074;-68
2024/01/21 07:16:17;;;;;;;9.18;5.25;;;;;;;;;;5010951;28;20248;-68
2024/01/21 07:18:43;;;;;;;8.00;4.93;;;;;;;;;;5014747;28;20533;-69
2024/01/21 07:21:09;;;;;;;10.07;5.15;;;;;;;;;;5014632;28;20061;-69
2024/01/21 07:26:12;;;;;;;11.18;5.43;;;;;;;;;;5025150;28;20673;-67
2024/01/21 07:28:38;;;;;;;9.02;5.50;;;;;;;;;;5031393;28;20095;-66
2024/01/21 07:31:04;;;;;;;12.50;5.65;;;;;;;;;;5039995;28;20151;-66
2024/01/21 07:33:30;;;;;;;10.73;5.15;;;;;;;;;;5034643;28;20033;-67
2024/01/21 07:35:57;;;;;;;10.52;5.60;;;;;;;;;;5035322;28;20442;-67
2024/01/21 07:38:23;;;;;;;8.20;5.07;;;;;;;;;;5034579;28;20041;-67
2024/01/21 07:40:49;;;;;;;9.00;5.00;;;;;;;;;;5035030;28;20124;-67
2024/01/21 07:43:17;;;;;;;9.75;5.32;;;;;;;;;;5034172;28;20033;-67
2024/01/21 07:45:43;;;;;;;11.65;5.25;;;;;;;;;;5027410;28;20503;-67
2024/01/21 07:48:09;;;;;;;10.90;6.20;;;;;;;;;;5034212;28;20046;-67
2024/01/21 07:50:35;;;;;;;10.50;5.60;;;;;;;;;;5033836;28;20488;-67
2024/01/21 07:53:01;;;;;;;10.90;5.53;;;;;;;;;;5034385;28;20049;-67
2024/01/21 07:55:27;;;;;;;10.13;5.80;;;;;;;;;;5033298;28;20037;-67
2024/01/21 07:57:53;;;;;;;10.80;5.40;;;;;;;;;;5034360;28;20406;-67
2024/01/21 08:00:19;;;;;;;9.07;5.70;;;;;;;;;;5033991;28;20116;-67
2024/01/21 08:02:45;;;;;;;10.95;6.57;;;;;;;;;;5027345;28;20179;-67
2024/01/21 08:05:11;;;;;;;10.00;5.68;;;;;;;;;;5037273;28;20125;-67
2024/01/21 08:07:37;;;;;;;11.70;5.63;;;;;;;;;;5038060;28;20187;-67
2024/01/21 08:10:04;;;;;;;10.68;5.72;;;;;;;;;;5033394;28;20049;-67
2024/01/21 08:12:30;;;;;;;10.07;5.70;;;;;;;;;;5032334;28;20056;-68
2024/01/21 08:14:56;;;;;;;10.50;5.68;;;;;;;;;;5034590;28;20080;-68
2024/01/21 08:17:22;;;;;;;9.90;5.05;;;;;;;;;;5040172;28;20499;-68
2024/01/21 08:19:48;;;;;;;10.63;6.20;;;;;;;;;;5034885;28;20404;-68
2024/01/21 08:22:14;;;;;;;8.93;5.57;;;;;;;;;;5032292;28;20065;-67
2024/01/21 08:24:40;;;;;;;10.90;5.90;;;;;;;;;;5034106;28;20103;-67
2024/01/21 08:27:06;;;;;;;9.25;5.85;;;;;;;;;;5031090;28;20453;-67
2024/01/21 08:29:33;;;;;;;9.95;5.45;;;;;;;;;;5030446;28;20050;-67
2024/01/21 08:32:00;;;;;;;10.27;5.53;;;;;;;;;;5034112;28;20088;-67
2024/01/21 08:34:26;;;;;;;12.07;5.95;;;;;;;;;;5034233;28;20048;-67
2024/01/21 08:36:52;;;;;;;11.32;5.70;;;;;;;;;;5034337;28;20404;-67
2024/01/21 08:39:18;;;;;;;9.52;5.85;;;;;;;;;;5033319;28;20075;-67
2024/01/21 08:41:44;;;;;;;9.77;5.75;;;;;;;;;;5033184;28;20495;-67
2024/01/21 08:44:10;;;;;;;11.60;6.18;;;;;;;;;;5034205;28;20069;-67
2024/01/21 08:46:36;;;;;;;8.88;5.22;;;;;;;;;;5034076;28;20038;-67
2024/01/21 08:49:02;;;;;;;10.05;6.30;;;;;;;;;;5034595;28;20076;-67
2024/01/21 08:51:29;;;;;;;10.52;6.13;;;;;;;;;;5032236;28;20110;-67
2024/01/21 08:53:58;;;;;;;9.80;5.82;;;;;;;;;;5034755;28;20076;-67
2024/01/21 08:56:25;;;;;;;10.00;6.05;;;;;;;;;;5032465;28;20049;-67
2024/01/21 08:58:51;;;;;;;8.40;5.57;;;;;;;;;;5034487;28;20090;-67
2024/01/21 09:01:17;;;;;;;7.55;5.25;;;;;;;;;;5033781;28;20034;-67
2024/01/21 09:03:43;;;;;;;10.60;6.13;;;;;;;;;;5028777;28;20049;-67
2024/01/21 09:06:10;;;;;;;7.95;5.63;;;;;;;;;;5034793;28;20041;-68
2024/01/21 09:08:36;;;;;;;11.48;6.20;;;;;;;;;;5033928;28;20087;-68
2024/01/21 09:11:02;;;;;;;10.80;6.30;;;;;;;;;;5034587;28;20463;-70
2024/01/21 09:13:28;;;;;;;9.18;6.47;;;;;;;;;;5033644;28;20484;-69
2024/01/21 09:15:54;;;;;;;9.40;6.60;;;;;;;;;;5032571;28;20114;-69
2024/01/21 09:18:20;;;;;;;11.70;6.18;;;;;;;;;;5029187;28;20065;-68
2024/01/21 09:20:46;;;;;;;16.85;6.10;;;;;;;;;;5031152;28;20076;-68
2024/01/21 09:23:12;;;;;;;9.60;5.57;;;;;;;;;;5034063;28;20053;-68
2024/01/21 09:25:37;;;;;;;9.35;5.68;;;;;;;;;;5032333;28;20064;-68
2024/01/21 09:28:05;;;;;;;8.93;5.75;;;;;;;;;;5034553;28;20072;-68
2024/01/21 09:30:31;;;;;;;10.60;5.22;;;;;;;;;;5033649;28;20116;-69
2024/01/21 09:32:57;;;;;;;10.05;6.00;;;;;;;;;;5034750;28;20037;-69
2024/01/21 09:35:23;;;;;;;9.68;6.10;;;;;;;;;;5034103;28;20398;-68
2024/01/21 09:37:49;;;;;;;10.90;6.18;;;;;;;;;;5032859;28;20037;-69
2024/01/21 09:40:15;;;;;;;9.82;6.07;;;;;;;;;;5032733;28;20041;-70
2024/01/21 09:42:41;;;;;;;10.35;5.35;;;;;;;;;;5032407;28;20088;-69
2024/01/21 09:45:10;;;;;;;9.70;5.68;;;;;;;;;;5035006;28;20497;-68
2024/01/21 09:47:37;;;;;;;11.35;6.65;;;;;;;;;;5029241;28;20132;-68
2024/01/21 09:50:03;;;;;;;8.45;5.55;;;;;;;;;;5036869;28;20041;-76
2024/01/21 09:52:29;;;;;;;9.40;6.05;;;;;;;;;;5020218;28;20041;-71
2024/01/21 09:54:55;;;;;;;11.75;6.38;;;;;;;;;;5038439;28;20470;-64
2024/01/21 09:57:21;;;;;;;9.85;6.13;;;;;;;;;;5037608;28;20128;-64
2024/01/21 09:59:48;;;;;;;10.45;6.03;;;;;;;;;;5037355;28;20041;-66
2024/01/21 10:02:16;;;;;;;10.95;5.88;;;;;;;;;;5036028;28;20033;-64
2024/01/21 10:04:42;;;;;;;9.27;5.50;;;;;;;;;;5036357;28;20037;-65
2024/01/21 10:07:09;;;;;;;10.73;6.47;;;;;;;;;;5035158;28;20044;-66
2024/01/21 10:09:35;;;;;;;9.57;5.65;;;;;;;;;;5037125;28;20041;-65
2024/01/21 10:12:01;;;;;;;10.40;5.53;;;;;;;;;;5038525;28;20392;-65
2024/01/21 10:14:33;;;;;;;9.60;5.07;;;;;;;;;;5035863;28;20045;-65
2024/01/21 10:17:00;;;;;;;9.15;5.82;;;;;;;;;;5043359;28;20044;-65
2024/01/21 10:19:27;;;;;;;12.20;5.95;;;;;;;;;;5040157;28;20400;-65
2024/01/21 10:22:08;;;;;;;10.75;6.13;;;;;;;;;;5038382;28;20496;-65
2024/01/21 10:24:36;;;;;;;10.18;5.75;;;;;;;;;;5037422;28;20392;-65
2024/01/21 10:27:02;;;;;;;9.95;5.80;;;;;;;;;;5037244;28;20095;-65
2024/01/21 10:29:28;;;;;;;12.35;5.13;;;;;;;;;;5037167;28;20065;-65
2024/01/21 10:31:54;;;;;;;11.50;6.85;;;;;;;;;;5069595;22;20125;-65
2024/01/21 10:34:20;;;;;;;11.82;7.05;;;;;;;;;;5076788;28;20032;-66
2024/01/21 10:36:48;;;;;;;10.27;6.50;;;;;;;;;;5073845;28;20479;-65
2024/01/21 10:39:17;;;;;;;10.85;6.20;;;;;;;;;;5074398;28;20037;-66
2024/01/21 10:41:44;;;;;;;8.98;6.07;;;;;;;;;;5057476;28;20458;-65
2024/01/21 10:44:10;;;;;;;10.05;6.22;;;;;;;;;;5053001;28;20116;-65
2024/01/21 10:46:37;;;;;;;8.68;5.45;;;;;;;;;;5054410;28;20456;-65
2024/01/21 10:49:04;;;;;;;9.00;5.63;;;;;;;;;;5053916;28;21288;-65
2024/01/21 10:51:30;;;;;;;10.38;6.07;;;;;;;;;;5053867;28;20479;-65
2024/01/21 10:54:00;;;;;;;11.32;6.13;;;;;;;;;;5054054;28;20076;-67
2024/01/21 10:56:26;;;;;;;8.70;6.05;;;;;;;;;;5052346;28;20047;-66
2024/01/21 10:58:53;;;;;;;10.30;6.43;;;;;;;;;;5053667;28;20053;-66
2024/01/21 11:01:19;;;;;;;11.63;6.35;;;;;;;;;;5044052;28;20038;-66
2024/01/21 11:03:48;;;;;;;9.65;6.43;;;;;;;;;;5045798;28;20740;-66
2024/01/21 11:06:15;;;;;;;9.32;6.03;;;;;;;;;;5052930;28;20049;-66
2024/01/21 11:08:45;;;;;;;11.90;6.50;;;;;;;;;;5050958;28;20041;-66
2024/01/21 11:11:11;;;;;;;10.18;6.15;;;;;;;;;;5047021;28;20487;-66
2024/01/21 11:13:44;;;;;;;10.73;6.13;;;;;;;;;;5053867;28;20045;-65
2024/01/21 11:16:11;;;;;;;10.55;6.30;;;;;;;;;;5052876;28;20399;-65
2024/01/21 11:18:37;;;;;;;11.55;6.05;;;;;;;;;;5058049;28;20045;-65
2024/01/21 11:21:03;;;;;;;14.40;5.78;;;;;;;;;;5053394;28;20041;-65
2024/01/21 11:23:29;;;;;;;11.57;6.28;;;;;;;;;;5053475;28;20064;-65
2024/01/21 11:25:55;;;;;;;9.98;5.63;;;;;;;;;;5053410;28;20033;-65
2024/01/21 11:28:28;;;;;;;10.65;5.97;;;;;;;;;;5056269;28;20044;-65
2024/01/21 11:31:01;;;;;;;9.52;5.65;;;;;;;;;;5056011;28;20766;-65
2024/01/21 11:33:28;;;;;;;7.43;4.68;;;;;;;;;;5053465;28;20122;-65
2024/01/21 11:35:54;;;;;;;12.30;6.30;;;;;;;;;;5053139;28;20052;-65
2024/01/21 11:38:21;;;;;;;12.35;6.65;;;;;;;;;;5054987;28;20119;-65
2024/01/21 11:40:53;;;;;;;11.00;6.72;;;;;;;;;;5053022;28;20045;-65
2024/01/21 11:43:19;;;;;;;10.02;5.32;;;;;;;;;;5052956;28;20079;-65
2024/01/21 11:45:45;;;;;;;12.32;6.45;;;;;;;;;;5060133;28;20040;-65
2024/01/21 11:48:11;;;;;;;11.18;5.90;;;;;;;;;;5052767;28;20045;-65
2024/01/21 11:50:37;;;;;;;9.45;6.68;;;;;;;;;;5052792;28;20045;-65
2024/01/21 11:53:03;;;;;;;10.23;6.32;;;;;;;;;;5052961;28;20128;-66
2024/01/21 11:55:29;;;;;;;12.02;6.82;;;;;;;;;;5052666;28;20033;-65
2024/01/21 11:57:55;;;;;;;11.20;6.45;;;;;;;;;;5052357;28;20107;-65
2024/01/21 12:00:21;;;;;;;11.70;6.53;;;;;;;;;;5052259;28;20032;-65
2024/01/21 12:02:47;;;;;;;9.40;5.82;;;;;;;;;;5052134;28;20040;-65
2024/01/21 12:05:18;;;;;;;10.27;5.65;;;;;;;;;;5052717;28;20083;-65
2024/01/21 12:07:44;;;;;;;10.13;5.97;;;;;;;;;;5052600;28;20045;-65
2024/01/21 12:10:10;;;;;;;9.88;5.88;;;;;;;;;;5052467;28;20099;-65
2024/01/21 12:12:36;;;;;;;8.15;5.45;;;;;;;;;;5051065;28;20116;-65
2024/01/21 12:15:02;;;;;;;10.10;6.22;;;;;;;;;;5058208;28;20045;-65
2024/01/21 12:17:28;;;;;;;15.00;8.63;;;;;;;;;;5051997;28;20048;-65
2024/01/21 12:19:54;;;;;;;13.02;7.00;;;;;;;;;;5052093;28;20514;-65
2024/01/21 12:22:35;;;;;;;11.38;6.45;;;;;;;;;;5051947;28;20059;-65
2024/01/21 12:25:01;;;;;;;11.25;6.63;;;;;;;;;;5051782;28;20037;-65
2024/01/21 12:27:27;;;;;;;9.70;5.97;;;;;;;;;;5051887;28;20376;-65
2024/01/21 12:29:53;;;;;;;11.75;7.30;;;;;;;;;;5051689;28;20039;-65
2024/01/21 12:32:19;;;;;;;11.98;7.22;;;;;;;;;;5051700;28;20044;-65
2024/01/21 12:34:45;;;;;;;12.75;6.00;;;;;;;;;;5052018;28;20041;-65
2024/01/21 12:37:12;;;;;;;10.52;6.25;;;;;;;;;;5052312;28;20041;-65
2024/01/21 12:39:40;;;;;;;12.02;6.75;;;;;;;;;;5052269;28;20059;-65
2024/01/21 12:42:06;;;;;;;11.85;6.70;;;;;;;;;;5051738;28;20041;-65
2024/01/21 12:44:32;;;;;;;10.68;6.07;;;;;;;;;;5051990;28;20095;-65
2024/01/21 12:46:58;;;;;;;11.93;6.90;;;;;;;;;;5051796;28;20044;-65
2024/01/21 12:49:24;;;;;;;11.68;6.38;;;;;;;;;;5050852;28;20124;-65
2024/01/21 12:51:50;;;;;;;9.20;6.13;;;;;;;;;;5051020;28;20582;-65
2024/01/21 12:54:16;;;;;;;10.70;5.75;;;;;;;;;;5051729;28;20060;-65
2024/01/21 12:56:42;;;;;;;11.02;6.63;;;;;;;;;;5051460;28;20106;-65
2024/01/21 12:59:08;;;;;;;14.18;6.88;;;;;;;;;;5050937;28;20453;-65
2024/01/21 13:01:35;;;;;;;12.23;6.60;;;;;;;;;;5051180;28;20037;-65
2024/01/21 13:04:01;;;;;;;11.82;6.95;;;;;;;;;;5051856;28;20033;-65
2024/01/21 13:06:27;;;;;;;12.05;7.47;;;;;;;;;;5052013;28;20521;-65
2024/01/21 13:08:53;;;;;;;12.73;6.97;;;;;;;;;;5051791;28;20056;-65
2024/01/21 13:11:20;;;;;;;13.32;6.40;;;;;;;;;;5051538;28;20064;-65
2024/01/21 13:13:46;;;;;;;12.02;7.30;;;;;;;;;;5051774;28;20127;-65
2024/01/21 13:16:12;;;;;;;12.70;7.28;;;;;;;;;;5052074;28;20179;-65
2024/01/21 13:18:38;;;;;;;13.80;7.25;;;;;;;;;;5051727;28;20037;-65
2024/01/21 13:21:07;;;;;;;13.35;7.63;;;;;;;;;;5051546;28;20057;-65
2024/01/21 13:26:08;;;;;;;13.25;6.80;;;;;;;;;;5007606;28;20060;-68
2024/01/21 13:30:43;;;;;;;10.18;5.97;;;;;;;;;;5007146;28;20044;-68
2024/01/21 13:31:26;;;;;;;11.07;6.43;;;;;;;;;;5015554;28;20046;-68
2024/01/21 13:33:52;;;;;;;17.92;7.15;;;;;;;;;;5009973;28;20038;-68
2024/01/21 13:36:18;;;;;;;12.32;7.60;;;;;;;;;;5014550;28;20041;-67
2024/01/21 13:38:44;;;;;;;13.75;6.75;;;;;;;;;;5003415;28;20420;-68
2024/01/21 13:41:10;;;;;;;13.10;7.15;;;;;;;;;;5003703;28;20466;-67
2024/01/21 13:43:36;;;;;;;11.82;7.00;;;;;;;;;;5004290;28;20109;-67
2024/01/21 13:46:02;;;;;;;11.98;7.20;;;;;;;;;;4980568;28;20046;-67
2024/01/21 13:48:29;;;;;;;13.77;7.50;;;;;;;;;;5000213;28;20042;-67
2024/01/21 13:50:55;;;;;;;14.32;7.38;;;;;;;;;;5003187;28;20050;-67
2024/01/21 13:53:21;;;;;;;11.60;6.72;;;;;;;;;;5015162;28;20048;-67
2024/01/21 13:55:47;;;;;;;12.30;7.45;;;;;;;;;;5008328;28;20662;-67
2024/01/21 13:58:16;;;;;;;11.73;5.80;;;;;;;;;;5007032;28;20034;-67
2024/01/21 14:00:42;;;;;;;11.93;6.93;;;;;;;;;;5014388;28;20038;-67
2024/01/21 14:03:08;;;;;;;11.77;6.88;;;;;;;;;;4985939;28;20398;-67
2024/01/21 14:05:38;;;;;;;11.18;6.53;;;;;;;;;;4977750;28;20080;-67
2024/01/21 14:08:04;;;;;;;14.80;7.25;;;;;;;;;;5002643;28;20057;-67
2024/01/21 14:10:30;;;;;;;13.43;7.38;;;;;;;;;;5015269;28;20042;-67
2024/01/21 14:12:56;;;;;;;14.32;6.88;;;;;;;;;;4997310;28;20057;-67
2024/01/21 14:15:22;;;;;;;14.25;7.35;;;;;;;;;;5010539;28;20121;-67
2024/01/21 14:17:50;;;;;;;14.07;7.40;;;;;;;;;;5002895;28;20168;-67
2024/01/21 14:20:16;;;;;;;13.88;7.05;;;;;;;;;;5015053;28;20065;-67
2024/01/21 14:22:43;;;;;;;12.82;7.78;;;;;;;;;;5004833;28;20520;-67
2024/01/21 14:25:38;;;;;;;15.38;7.45;;;;;;;;;;5013809;28;20088;-67
2024/01/21 14:28:04;;;;;;;13.45;7.53;;;;;;;;;;4999164;28;20161;-67
2024/01/21 14:30:34;;;;;;;14.45;7.70;;;;;;;;;;4998905;28;20416;-67
2024/01/21 14:33:01;;;;;;;12.80;7.65;;;;;;;;;;4995465;28;20038;-67
2024/01/21 14:35:27;;;;;;;12.93;7.43;;;;;;;;;;4998618;28;20035;-67